createdAt,value
2022-12-04T09:36:48.707Z,61.82
2022-12-04T09:39:16.163Z,61.87
2022-12-04T09:42:05.096Z,60.77
2022-12-04T09:44:52.848Z,61.56
2022-12-04T09:47:53.984Z,59.96
2022-12-04T09:50:53.911Z,60.76
2022-12-04T09:53:52.218Z,60.69
2022-12-04T09:56:35.572Z,61.07
2022-12-04T09:59:19.780Z,59.63
2022-12-04T10:04:37.634Z,60.98
2022-12-04T10:07:16.919Z,60.49
2022-12-04T10:09:56.022Z,60.15
2022-12-04T10:12:52.158Z,59.41
2022-12-04T10:15:32.902Z,59.31
2022-12-04T10:18:26.055Z,59.20
2022-12-04T10:21:14.684Z,60.62
2022-12-04T10:23:52.304Z,60.42
2022-12-04T10:26:22.505Z,60.65
2022-12-04T10:29:03.771Z,58.96
2022-12-04T10:31:34.433Z,59.79
2022-12-04T10:34:07.681Z,59.61
2022-12-04T10:36:35.600Z,60.21
2022-12-04T10:39:25.306Z,58.70
2022-12-04T10:42:03.771Z,59.12
2022-12-04T10:44:30.867Z,59.80
2022-12-04T10:47:03.279Z,59.52
2022-12-04T10:49:34.732Z,59.44
2022-12-04T10:52:02.061Z,59.55
2022-12-04T10:55:11.107Z,59.30
2022-12-04T10:57:45.600Z,59.20
2022-12-04T11:00:32.746Z,58.41
2022-12-04T11:03:04.361Z,59.14
2022-12-04T11:05:44.355Z,58.98
2022-12-04T11:08:26.647Z,58.47
2022-12-04T11:11:10.523Z,58.39
2022-12-04T11:13:38.645Z,59.09
2022-12-04T11:16:09.958Z,59.17
2022-12-04T11:18:49.538Z,58.25
2022-12-04T11:21:23.325Z,59.05
2022-12-04T11:24:00.607Z,59.06
2022-12-04T11:26:31.005Z,58.79
2022-12-04T11:29:05.522Z,58.80
2022-12-04T11:31:35.627Z,59.00
2022-12-04T11:34:08.188Z,58.88
2022-12-04T11:36:43.927Z,58.38
2022-12-04T11:39:22.833Z,58.18
2022-12-04T11:42:05.111Z,58.29
2022-12-04T11:44:36.539Z,59.00
2022-12-04T11:47:06.039Z,58.96
2022-12-04T11:49:40.904Z,58.58
2022-12-04T11:52:26.710Z,58.05
2022-12-04T11:55:08.957Z,58.58
2022-12-04T11:57:57.353Z,59.09
2022-12-04T12:00:28.875Z,59.09
2022-12-04T12:03:08.122Z,59.27
2022-12-04T12:06:02.745Z,58.33
2022-12-04T12:08:37.756Z,59.00
2022-12-04T12:11:27.534Z,57.99
2022-12-04T12:14:18.072Z,58.77
2022-12-04T12:16:58.422Z,58.94
2022-12-04T12:19:33.643Z,59.04
2022-12-04T12:22:11.700Z,58.81
2022-12-04T12:25:07.810Z,58.24
2022-12-04T12:28:10.121Z,58.66
2022-12-04T12:31:13.077Z,58.55
2022-12-04T12:33:47.055Z,59.48
2022-12-04T12:36:15.609Z,59.52
2022-12-04T12:38:58.981Z,58.39
2022-12-04T12:41:44.292Z,58.71
2022-12-04T12:44:20.616Z,59.29
2022-12-04T12:46:53.337Z,59.27
2022-12-04T12:49:27.041Z,59.50
2022-12-04T12:52:13.446Z,58.82
2022-12-04T12:54:49.292Z,59.04
2022-12-04T12:57:29.407Z,59.16
2022-12-04T13:00:04.065Z,59.60
2022-12-04T13:02:59.623Z,58.86
2022-12-04T13:05:54.350Z,59.54
2022-12-04T13:08:30.029Z,59.46
2022-12-04T13:11:17.174Z,59.36
2022-12-04T13:14:07.464Z,59.51
2022-12-04T13:16:52.911Z,59.97
2022-12-04T13:19:33.058Z,60.21
2022-12-04T13:22:44.075Z,59.16
2022-12-04T13:25:28.122Z,60.11
2022-12-04T13:28:09.199Z,59.23
2022-12-04T13:31:19.441Z,59.40
2022-12-04T13:34:18.128Z,60.14
2022-12-04T13:37:13.564Z,59.41
2022-12-04T13:40:28.008Z,59.29
2022-12-04T13:43:11.653Z,59.71
2022-12-04T13:45:45.228Z,59.87
2022-12-04T13:48:44.096Z,59.73
2022-12-04T13:51:27.438Z,60.08
2022-12-04T13:57:15.693Z,60.11
2022-12-04T13:59:43.834Z,59.85
2022-12-04T14:02:46.983Z,59.80
2022-12-04T14:05:15.119Z,60.00
2022-12-04T14:08:44.239Z,59.73
2022-12-04T14:11:52.900Z,60.30
2022-12-04T14:14:27.464Z,60.00
2022-12-04T14:17:00.771Z,60.58
2022-12-04T14:19:37.429Z,60.82
2022-12-04T14:22:05.015Z,60.44
2022-12-04T14:24:40.072Z,60.38
2022-12-04T14:27:42.097Z,60.73
2022-12-04T14:30:23.800Z,60.65
2022-12-04T14:33:00.967Z,60.83
2022-12-04T14:35:29.517Z,61.06
2022-12-04T14:38:04.581Z,60.63
2022-12-04T14:40:49.642Z,60.43
2022-12-04T14:43:22.121Z,60.64
2022-12-04T14:46:11.923Z,60.61
2022-12-04T14:49:11.037Z,61.19
2022-12-04T14:52:18.035Z,60.85
2022-12-04T14:55:13.605Z,61.06
2022-12-04T14:58:42.646Z,61.13
2022-12-04T15:01:50.071Z,61.38
2022-12-04T15:05:08.424Z,60.73
2022-12-04T15:07:55.584Z,60.78
2022-12-04T15:10:44.873Z,61.39
2022-12-04T15:13:16.057Z,61.45
2022-12-04T15:20:27.017Z,61.00
2022-12-04T15:22:58.945Z,61.06
2022-12-04T15:25:40.974Z,61.46
2022-12-04T15:28:49.525Z,61.27
2022-12-04T15:31:38.044Z,61.06
2022-12-04T15:34:46.044Z,60.96
2022-12-04T15:40:26.594Z,61.54
2022-12-04T15:43:18.980Z,61.09
2022-12-04T15:45:49.205Z,61.53
2022-12-04T15:48:48.086Z,61.62
2022-12-04T15:51:21.952Z,62.04
2022-12-04T15:53:58.032Z,61.54
2022-12-04T15:56:26.390Z,61.96
2022-12-04T15:59:20.715Z,61.56
2022-12-04T16:01:49.181Z,61.74
2022-12-04T16:04:26.655Z,61.59
2022-12-04T16:06:57.983Z,61.58
2022-12-04T16:09:30.479Z,61.63
2022-12-04T16:12:20.352Z,61.76
2022-12-04T16:14:50.705Z,61.66
2022-12-04T16:17:29.844Z,61.95
2022-12-04T16:20:07.737Z,61.11
2022-12-04T16:22:42.790Z,61.59
2022-12-04T16:25:40.552Z,61.34
2022-12-04T16:28:12.051Z,61.80
2022-12-04T16:30:39.754Z,61.78
2022-12-04T16:33:19.344Z,61.31
2022-12-04T16:35:49.554Z,62.21
2022-12-04T16:38:19.833Z,61.72
2022-12-04T16:40:50.993Z,62.07
2022-12-04T16:43:29.245Z,61.60
2022-12-04T16:46:03.930Z,61.27
2022-12-04T16:48:41.321Z,62.17
2022-12-04T16:51:23.677Z,62.28
2022-12-04T16:54:18.464Z,61.20
2022-12-04T16:56:49.008Z,61.24
2022-12-04T16:59:20.680Z,61.90
2022-12-04T17:02:00.448Z,61.94
2022-12-04T17:04:31.973Z,61.37
2022-12-04T17:07:07.144Z,61.92
2022-12-04T17:09:36.676Z,61.75
2022-12-04T17:12:04.957Z,61.63
2022-12-04T17:14:39.446Z,61.42
2022-12-04T17:17:15.925Z,62.21
2022-12-04T17:19:50.538Z,62.03
2022-12-04T17:22:23.253Z,62.21
2022-12-04T17:24:56.771Z,62.17
2022-12-04T17:27:34.013Z,61.19
2022-12-04T17:30:10.826Z,61.58
2022-12-04T17:32:46.775Z,62.09
2022-12-04T17:35:58.677Z,61.57
2022-12-04T17:38:28.415Z,62.31
2022-12-04T17:41:03.185Z,61.97
2022-12-04T17:43:32.711Z,61.40
2022-12-04T17:46:08.384Z,62.01
2022-12-04T17:48:38.694Z,62.21
2022-12-04T17:51:36.610Z,62.20
2022-12-04T17:54:05.376Z,62.00
2022-12-04T17:56:34.083Z,62.25
2022-12-04T17:59:01.166Z,62.53
2022-12-04T18:01:29.426Z,62.49
2022-12-04T18:04:06.055Z,62.59
2022-12-04T18:06:36.657Z,62.59
2022-12-04T18:09:07.016Z,62.22
2022-12-04T18:11:50.673Z,63.02
2022-12-04T18:14:24.142Z,62.78
2022-12-04T18:16:57.341Z,62.53
2022-12-04T18:19:26.683Z,62.48
2022-12-04T18:22:00.475Z,62.71
2022-12-04T18:24:28.665Z,62.58
2022-12-04T18:26:56.443Z,62.04
2022-12-04T18:29:28.176Z,62.84
2022-12-04T18:31:55.720Z,62.11
2022-12-04T18:34:24.261Z,63.04
2022-12-04T18:36:52.792Z,62.37
2022-12-04T18:39:24.598Z,62.83
2022-12-04T18:41:58.632Z,62.24
2022-12-04T18:44:27.774Z,62.51
2022-12-04T18:47:07.549Z,63.04
2022-12-04T18:49:46.571Z,62.79
2022-12-04T18:52:25.579Z,63.31
2022-12-04T18:54:56.565Z,62.57
2022-12-04T18:57:36.728Z,62.47
2022-12-04T19:00:04.752Z,62.71
2022-12-04T19:02:37.217Z,63.05
2022-12-04T19:05:05.744Z,62.50
2022-12-04T19:07:33.271Z,62.26
2022-12-04T19:10:12.170Z,62.36
2022-12-04T19:12:39.640Z,62.78
2022-12-04T19:15:09.600Z,63.23
2022-12-04T19:17:39.453Z,62.44
2022-12-04T19:20:13.707Z,63.25
2022-12-04T19:22:43.889Z,62.44
2022-12-04T19:25:10.961Z,63.29
2022-12-04T19:27:41.080Z,63.01
2022-12-04T19:30:08.848Z,63.52
2022-12-04T19:32:38.904Z,62.94
2022-12-04T19:35:06.777Z,63.24
2022-12-04T19:37:38.292Z,63.24
2022-12-04T19:40:09.101Z,63.26
2022-12-04T19:42:38.776Z,63.52
2022-12-04T19:45:10.918Z,63.38
2022-12-04T19:47:39.901Z,63.11
2022-12-04T19:50:07.624Z,63.75
2022-12-04T19:52:34.624Z,62.68
2022-12-04T19:55:01.717Z,63.34
2022-12-04T19:57:29.667Z,63.18
2022-12-04T19:59:56.663Z,63.09
2022-12-04T20:02:23.720Z,63.02
2022-12-04T20:04:50.797Z,63.23
2022-12-04T20:07:19.292Z,63.07
2022-12-04T20:09:54.806Z,62.98
2022-12-04T20:12:21.982Z,63.52
2022-12-04T20:14:49.576Z,63.35
2022-12-04T20:17:16.974Z,62.79
2022-12-04T20:19:44.502Z,63.49
2022-12-04T20:22:11.729Z,63.70
2022-12-04T20:24:39.069Z,63.28
2022-12-04T20:27:06.315Z,63.24
2022-12-04T20:29:33.415Z,63.56
2022-12-04T20:32:00.311Z,63.26
2022-12-04T20:34:27.356Z,63.09
2022-12-04T20:36:54.371Z,63.19
2022-12-04T20:39:21.420Z,63.88
2022-12-04T20:41:50.770Z,63.63
2022-12-04T20:44:19.747Z,63.16
2022-12-04T20:46:47.581Z,63.64
2022-12-04T20:49:21.217Z,63.76
2022-12-04T20:51:49.071Z,63.17
2022-12-04T20:54:20.727Z,63.19
2022-12-04T20:56:49.256Z,63.16
2022-12-04T20:59:18.770Z,63.15
2022-12-04T21:01:46.753Z,63.41
2022-12-04T21:04:14.112Z,63.00
2022-12-04T21:06:44.981Z,63.77
2022-12-04T21:09:15.002Z,63.25
2022-12-04T21:11:56.278Z,63.92
2022-12-04T21:14:48.419Z,63.71
2022-12-04T21:17:19.400Z,63.94
2022-12-04T21:19:50.283Z,63.46
2022-12-04T21:22:19.146Z,63.90
2022-12-04T21:24:46.188Z,63.13
2022-12-04T21:27:17.439Z,63.89
2022-12-04T21:29:50.549Z,63.81
2022-12-04T21:32:19.479Z,63.11
2022-12-04T21:34:46.494Z,63.99
2022-12-04T21:37:13.796Z,63.59
2022-12-04T21:39:42.015Z,63.85
2022-12-04T21:42:27.739Z,63.86
2022-12-04T21:44:55.741Z,63.64
2022-12-04T21:47:23.167Z,63.95
2022-12-04T21:49:50.266Z,63.96
2022-12-04T21:52:19.391Z,63.70
2022-12-04T21:54:52.558Z,64.22
2022-12-04T21:57:20.156Z,63.22
2022-12-04T21:59:47.261Z,63.43
2022-12-04T22:02:15.579Z,63.61
2022-12-04T22:04:42.854Z,64.02
2022-12-04T22:07:10.565Z,63.44
2022-12-04T22:09:39.120Z,64.11
2022-12-04T22:12:26.399Z,63.62
2022-12-04T22:14:53.689Z,64.23
2022-12-04T22:17:20.667Z,63.52
2022-12-04T22:19:47.559Z,63.89
2022-12-04T22:22:14.575Z,63.97
2022-12-04T22:24:41.894Z,64.16
2022-12-04T22:27:14.955Z,64.03
2022-12-04T22:29:50.602Z,63.48
2022-12-04T22:32:22.961Z,63.48
2022-12-04T22:34:50.149Z,63.96
2022-12-04T22:37:17.385Z,63.54
2022-12-04T22:39:44.314Z,63.51
2022-12-04T22:42:11.227Z,64.20
2022-12-04T22:44:38.164Z,63.21
2022-12-04T22:47:05.245Z,63.64
2022-12-04T22:49:32.257Z,63.95
2022-12-04T22:51:59.150Z,64.07
2022-12-04T22:54:26.094Z,64.08
2022-12-04T22:56:53.537Z,64.33
2022-12-04T22:59:20.524Z,63.96
2022-12-04T23:01:47.672Z,64.04
2022-12-04T23:04:14.610Z,63.65
2022-12-04T23:06:41.509Z,63.74
2022-12-04T23:09:12.847Z,64.16
2022-12-04T23:11:39.786Z,63.77
2022-12-04T23:14:09.436Z,63.90
2022-12-04T23:16:37.902Z,64.09
2022-12-04T23:19:06.875Z,63.94
2022-12-04T23:21:34.706Z,64.09
2022-12-04T23:24:01.924Z,64.24
2022-12-04T23:26:36.050Z,64.14
2022-12-04T23:29:18.039Z,63.73
2022-12-04T23:31:51.450Z,64.44
2022-12-04T23:34:18.462Z,63.85
2022-12-04T23:36:45.472Z,64.27
2022-12-04T23:39:12.883Z,63.77
2022-12-04T23:41:39.945Z,63.77
2022-12-04T23:44:06.900Z,63.69
2022-12-04T23:46:34.060Z,63.77
2022-12-04T23:49:01.642Z,64.23
2022-12-04T23:51:30.325Z,64.28
2022-12-04T23:53:57.475Z,64.28
2022-12-04T23:56:27.077Z,64.27
2022-12-04T23:58:56.237Z,63.88
